createdAt,value
2018-07-14T00:00:17.679Z,98358.12
2018-07-14T00:02:46.750Z,98354.02
2018-07-14T00:05:15.965Z,98348.77
2018-07-14T00:07:45.561Z,98350.06
2018-07-14T00:10:14.678Z,98350.76
2018-07-14T00:12:43.838Z,98350.84
2018-07-14T00:15:12.951Z,98354.17
2018-07-14T00:17:42.094Z,98351.65
2018-07-14T00:20:11.238Z,98350.76
2018-07-14T00:22:40.997Z,98349.49
2018-07-14T00:25:10.134Z,98352.77
2018-07-14T00:27:39.342Z,98358.48
2018-07-14T00:30:08.527Z,98362.67
2018-07-14T00:32:38.250Z,98362.53
2018-07-14T00:35:07.361Z,98362.64
2018-07-14T00:37:36.515Z,98357.56
2018-07-14T00:40:05.819Z,98354.11
2018-07-14T00:42:35.253Z,98353.89
2018-07-14T00:45:04.423Z,98352.50
2018-07-14T00:47:33.509Z,98352.88
2018-07-14T00:50:02.614Z,98350.95
2018-07-14T00:52:32.307Z,98352.95
2018-07-14T00:55:01.438Z,98350.27
2018-07-14T00:57:30.635Z,98353.57
2018-07-14T00:59:59.878Z,98352.92
2018-07-14T01:02:32.818Z,98352.29
2018-07-14T01:05:02.663Z,98352.56
2018-07-14T01:07:32.556Z,98350.59
2018-07-14T01:10:02.751Z,98349.94
2018-07-14T01:12:32.457Z,98349.51
2018-07-14T01:15:01.724Z,98348.59
2018-07-14T01:17:30.797Z,98352.02
2018-07-14T01:20:00.226Z,98351.00
2018-07-14T01:22:29.327Z,98357.87
2018-07-14T01:24:58.394Z,98350.36
2018-07-14T01:27:27.510Z,98348.44
2018-07-14T01:29:56.606Z,98355.28
2018-07-14T01:32:25.693Z,98355.20
2018-07-14T01:34:54.942Z,98352.29
2018-07-14T01:37:24.037Z,98351.88
2018-07-14T01:39:53.215Z,98348.64
2018-07-14T01:42:22.281Z,98355.17
2018-07-14T01:44:51.360Z,98356.28
2018-07-14T01:47:20.446Z,98362.70
2018-07-14T01:49:49.519Z,98359.71
2018-07-14T01:52:18.709Z,98360.97
2018-07-14T01:54:47.767Z,98358.98
2018-07-14T01:57:16.835Z,98362.98
2018-07-14T01:59:45.966Z,98364.70
2018-07-14T02:02:15.770Z,98364.55
2018-07-14T02:04:45.875Z,98366.11
2018-07-14T02:07:14.970Z,98361.41
2018-07-14T02:09:44.066Z,98356.83
2018-07-14T02:12:13.875Z,98357.83
2018-07-14T02:14:42.693Z,98362.58
2018-07-14T02:17:11.771Z,98365.64
2018-07-14T02:19:40.901Z,98358.12
2018-07-14T02:22:09.955Z,98359.17
2018-07-14T02:24:39.110Z,98354.46
2018-07-14T02:27:08.231Z,98358.88
2018-07-14T02:29:37.294Z,98363.56
2018-07-14T02:32:06.698Z,98365.88
2018-07-14T02:34:36.193Z,98365.97
2018-07-14T02:37:05.614Z,98368.11
2018-07-14T02:39:35.106Z,98373.08
2018-07-14T02:42:04.727Z,98367.72
2018-07-14T02:44:34.019Z,98375.59
2018-07-14T02:47:03.576Z,98380.43
2018-07-14T02:49:33.057Z,98382.13
2018-07-14T02:52:02.592Z,98382.38
2018-07-14T02:54:31.463Z,98388.10
2018-07-14T02:57:00.590Z,98386.66
2018-07-14T02:59:30.051Z,98388.95
2018-07-14T03:01:59.211Z,98384.09
2018-07-14T03:04:28.486Z,98380.67
2018-07-14T03:06:57.568Z,98380.09
2018-07-14T03:09:26.631Z,98370.25
2018-07-14T03:11:55.683Z,98374.52
2018-07-14T03:14:25.173Z,98375.80
2018-07-14T03:16:54.296Z,98369.07
2018-07-14T03:19:23.414Z,98372.77
2018-07-14T03:21:52.728Z,98372.64
2018-07-14T03:24:21.801Z,98366.58
2018-07-14T03:26:50.897Z,98362.53
2018-07-14T03:29:20.023Z,98362.81
2018-07-14T03:31:49.098Z,98357.70
2018-07-14T03:34:18.195Z,98362.27
2018-07-14T03:36:47.425Z,98359.92
2018-07-14T03:39:16.431Z,98367.90
2018-07-14T03:41:45.511Z,98363.77
2018-07-14T03:44:15.178Z,98364.16
2018-07-14T03:46:44.242Z,98364.00
2018-07-14T03:49:13.315Z,98360.22
2018-07-14T03:51:42.390Z,98354.30
2018-07-14T03:54:11.472Z,98357.30
2018-07-14T03:56:40.598Z,98355.00
2018-07-14T03:59:09.675Z,98352.93
2018-07-14T04:01:38.747Z,98357.34
2018-07-14T04:04:07.835Z,98360.84
2018-07-14T04:06:36.995Z,98368.63
2018-07-14T04:09:07.141Z,98362.13
2018-07-14T04:11:36.438Z,98372.29
2018-07-14T04:14:05.895Z,98362.30
2018-07-14T04:16:34.998Z,98373.99
2018-07-14T04:19:04.211Z,98371.84
2018-07-14T04:21:33.474Z,98378.18
2018-07-14T04:24:02.855Z,98376.45
2018-07-14T04:26:32.205Z,98376.36
2018-07-14T04:29:01.278Z,98373.08
2018-07-14T04:31:30.342Z,98379.84
2018-07-14T04:33:59.535Z,98378.94
2018-07-14T04:36:28.606Z,98375.22
2018-07-14T04:38:57.726Z,98376.66
2018-07-14T04:41:26.870Z,98379.00
2018-07-14T04:43:55.935Z,98379.28
2018-07-14T04:46:25.003Z,98379.56
2018-07-14T04:48:54.107Z,98370.36
2018-07-14T04:51:23.178Z,98370.50
2018-07-14T04:53:52.255Z,98366.52
2018-07-14T04:56:21.317Z,98368.58
2018-07-14T04:58:50.898Z,98374.67
2018-07-14T05:01:20.319Z,98367.41
2018-07-14T05:03:49.369Z,98372.84
2018-07-14T05:06:18.857Z,98371.97
2018-07-14T05:08:47.928Z,98364.47
2018-07-14T05:11:16.996Z,98368.96
2018-07-14T05:13:46.046Z,98366.51
2018-07-14T05:16:15.235Z,98370.39
2018-07-14T05:18:44.349Z,98367.78
2018-07-14T05:21:14.023Z,98370.98
2018-07-14T05:23:43.047Z,98372.67
2018-07-14T05:26:12.186Z,98369.17
2018-07-14T05:28:41.336Z,98377.31
2018-07-14T05:31:10.342Z,98370.96
2018-07-14T05:33:39.482Z,98368.31
2018-07-14T05:36:09.579Z,98367.45
2018-07-14T05:38:39.150Z,98367.34
2018-07-14T05:41:08.218Z,98372.92
2018-07-14T05:43:37.273Z,98371.46
2018-07-14T05:46:06.431Z,98381.33
2018-07-14T05:48:35.573Z,98378.43
2018-07-14T05:51:04.708Z,98372.50
2018-07-14T05:53:33.798Z,98382.36
2018-07-14T05:56:02.859Z,98379.05
2018-07-14T05:58:31.934Z,98382.35
2018-07-14T06:01:01.047Z,98386.43
2018-07-14T06:03:30.107Z,98388.49
2018-07-14T06:05:59.170Z,98387.59
2018-07-14T06:08:28.242Z,98379.63
2018-07-14T06:10:57.663Z,98376.53
2018-07-14T06:13:26.726Z,98387.09
2018-07-14T06:15:55.902Z,98386.02
2018-07-14T06:18:25.684Z,98385.82
2018-07-14T06:20:54.443Z,98389.83
2018-07-14T06:23:23.508Z,98385.19
2018-07-14T06:25:52.684Z,98389.48
2018-07-14T06:28:22.178Z,98390.16
2018-07-14T06:30:51.266Z,98392.19
2018-07-14T06:33:20.338Z,98391.88
2018-07-14T06:35:50.886Z,98393.92
2018-07-14T06:38:20.076Z,98398.20
2018-07-14T06:40:49.317Z,98396.67
2018-07-14T06:43:18.442Z,98391.21
2018-07-14T06:45:47.503Z,98388.31
2018-07-14T06:48:16.612Z,98392.21
2018-07-14T06:50:45.699Z,98396.11
2018-07-14T06:53:14.758Z,98399.52
2018-07-14T06:55:43.818Z,98392.91
2018-07-14T06:58:12.899Z,98394.63
2018-07-14T07:00:41.959Z,98391.78
2018-07-14T07:03:11.005Z,98392.28
2018-07-14T07:05:40.074Z,98395.41
2018-07-14T07:08:09.138Z,98392.48
2018-07-14T07:10:38.243Z,98396.02
2018-07-14T07:13:07.358Z,98396.34
2018-07-14T07:15:36.435Z,98394.27
2018-07-14T07:18:05.715Z,98394.53
2018-07-14T07:20:34.965Z,98385.15
2018-07-14T07:23:04.499Z,98384.97
2018-07-14T07:25:33.617Z,98390.38
2018-07-14T07:28:02.763Z,98388.92
2018-07-14T07:30:31.814Z,98388.77
2018-07-14T07:33:01.059Z,98390.66
2018-07-14T07:35:30.099Z,98385.61
2018-07-14T07:37:59.154Z,98379.45
2018-07-14T07:40:28.259Z,98373.36
2018-07-14T07:42:57.347Z,98378.29
2018-07-14T07:45:26.423Z,98375.25
2018-07-14T07:47:56.162Z,98370.76
2018-07-14T07:50:25.678Z,98363.47
2018-07-14T07:52:55.678Z,98365.72
2018-07-14T07:55:25.194Z,98376.08
2018-07-14T07:57:54.488Z,98373.34
2018-07-14T08:00:23.858Z,98369.16
2018-07-14T08:02:53.590Z,98367.14
2018-07-14T08:05:22.703Z,98362.84
2018-07-14T08:07:51.762Z,98360.47
2018-07-14T08:10:20.831Z,98361.13
2018-07-14T08:12:49.926Z,98359.28
2018-07-14T08:15:18.978Z,98360.80
2018-07-14T08:17:48.039Z,98363.25
2018-07-14T08:20:17.270Z,98357.22
2018-07-14T08:22:47.205Z,98355.37
2018-07-14T08:25:16.224Z,98355.69
2018-07-14T08:27:45.350Z,98352.97
2018-07-14T08:30:14.476Z,98346.06
2018-07-14T08:32:43.583Z,98350.13
2018-07-14T08:35:13.407Z,98352.56
2018-07-14T08:37:42.358Z,98344.80
2018-07-14T08:40:11.739Z,98347.46
2018-07-14T08:42:40.804Z,98348.20
2018-07-14T08:45:09.890Z,98342.86
2018-07-14T08:47:39.922Z,98345.48
2018-07-14T08:50:08.674Z,98349.28
2018-07-14T08:52:37.802Z,98350.65
2018-07-14T08:55:07.393Z,98347.78
2018-07-14T08:57:38.579Z,98348.53
2018-07-14T09:00:08.110Z,98346.78
2018-07-14T09:02:37.814Z,98344.70
2018-07-14T09:05:07.354Z,98349.67
2018-07-14T09:07:37.031Z,98347.23
2018-07-14T09:10:06.810Z,98339.58
2018-07-14T09:12:36.062Z,98338.53
2018-07-14T09:15:05.163Z,98344.14
2018-07-14T09:17:34.205Z,98337.23
2018-07-14T09:20:04.323Z,98341.68
2018-07-14T09:22:33.979Z,98337.25
2018-07-14T09:25:03.198Z,98338.05
2018-07-14T09:27:32.431Z,98337.89
2018-07-14T09:30:01.183Z,98330.08
2018-07-14T09:32:30.823Z,98328.49
2018-07-14T09:35:00.606Z,98321.79
2018-07-14T09:37:30.601Z,98323.86
2018-07-14T09:39:59.643Z,98322.55
2018-07-14T09:42:28.682Z,98309.77
2018-07-14T09:44:57.755Z,98304.36
2018-07-14T09:47:26.962Z,98298.80
2018-07-14T09:49:56.009Z,98306.72
2018-07-14T09:52:25.078Z,98300.22
2018-07-14T09:54:54.194Z,98304.84
2018-07-14T09:57:23.275Z,98295.31
2018-07-14T09:59:53.246Z,98294.09
2018-07-14T10:02:23.442Z,98284.27
2018-07-14T10:04:53.207Z,98288.11
2018-07-14T10:07:22.526Z,98290.38
2018-07-14T10:09:51.803Z,98281.54
2018-07-14T10:12:22.281Z,98290.12
2018-07-14T10:14:51.651Z,98287.02
2018-07-14T10:17:21.113Z,98288.40
2018-07-14T10:19:49.801Z,98287.92
2018-07-14T10:22:19.802Z,98277.77
2018-07-14T10:24:48.803Z,98280.24
2018-07-14T10:27:17.846Z,98287.05
2018-07-14T10:29:46.897Z,98276.82
2018-07-14T10:32:15.954Z,98285.14
2018-07-14T10:34:45.071Z,98273.78
2018-07-14T10:37:14.147Z,98274.06
2018-07-14T10:39:43.270Z,98272.68
2018-07-14T10:42:12.445Z,98270.28
2018-07-14T10:44:41.698Z,98265.34
2018-07-14T10:47:10.755Z,98263.67
2018-07-14T10:49:39.819Z,98265.89
2018-07-14T10:52:09.342Z,98262.67
2018-07-14T10:54:38.998Z,98258.11
2018-07-14T10:57:08.509Z,98250.52
2018-07-14T10:59:37.565Z,98244.83
2018-07-14T11:02:06.764Z,98243.34
2018-07-14T11:04:35.587Z,98241.86
2018-07-14T11:07:04.770Z,98239.83
2018-07-14T11:09:33.968Z,98240.58
2018-07-14T11:12:03.092Z,98243.70
2018-07-14T11:14:32.134Z,98237.03
2018-07-14T11:17:01.198Z,98235.41
2018-07-14T11:19:30.265Z,98242.83
2018-07-14T11:21:59.330Z,98240.77
2018-07-14T11:24:28.538Z,98243.27
2018-07-14T11:26:57.819Z,98240.59
2018-07-14T11:29:27.006Z,98238.82
2018-07-14T11:31:56.238Z,98237.42
2018-07-14T11:34:25.476Z,98240.55
2018-07-14T11:36:54.446Z,98245.19
2018-07-14T11:39:23.485Z,98235.80
2018-07-14T11:41:52.554Z,98237.42
2018-07-14T11:44:21.605Z,98226.98
2018-07-14T11:46:50.958Z,98224.82
2018-07-14T11:49:20.295Z,98225.37
2018-07-14T11:51:49.385Z,98224.64
2018-07-14T11:54:18.812Z,98221.28
2018-07-14T11:56:47.872Z,98220.52
2018-07-14T11:59:17.022Z,98217.41
2018-07-14T12:01:46.064Z,98224.35
2018-07-14T12:04:15.138Z,98222.53
2018-07-14T12:06:44.206Z,98216.05
2018-07-14T12:09:13.240Z,98219.13
2018-07-14T12:11:42.510Z,98215.59
2018-07-14T12:14:11.769Z,98217.29
2018-07-14T12:16:40.386Z,98211.22
2018-07-14T12:19:09.478Z,98217.75
2018-07-14T12:21:38.554Z,98217.11
2018-07-14T12:24:07.490Z,98217.30
2018-07-14T12:26:36.609Z,98212.19
2018-07-14T12:29:05.698Z,98210.77
2018-07-14T12:31:34.767Z,98210.98
2018-07-14T12:34:03.818Z,98209.84
2018-07-14T12:36:32.948Z,98207.94
2018-07-14T12:39:01.965Z,98198.61
2018-07-14T12:41:31.019Z,98200.31
2018-07-14T12:44:00.162Z,98199.72
2018-07-14T12:46:29.207Z,98191.92
2018-07-14T12:48:58.258Z,98188.27
2018-07-14T12:51:27.366Z,98184.23
2018-07-14T12:53:56.440Z,98185.23
2018-07-14T12:56:25.478Z,98182.84
2018-07-14T12:58:54.563Z,98186.88
2018-07-14T13:01:23.623Z,98187.43
2018-07-14T13:03:52.737Z,98187.06
2018-07-14T13:06:21.799Z,98182.27
2018-07-14T13:08:50.862Z,98175.56
2018-07-14T13:11:20.182Z,98178.67
2018-07-14T13:13:49.266Z,98178.17
2018-07-14T13:16:18.321Z,98172.74
2018-07-14T13:18:47.443Z,98171.89
2018-07-14T13:21:16.601Z,98165.48
2018-07-14T13:23:46.574Z,98171.02
2018-07-14T13:26:15.843Z,98158.93
2018-07-14T13:28:45.023Z,98163.28
2018-07-14T13:31:13.636Z,98157.09
2018-07-14T13:33:42.714Z,98149.58
2018-07-14T13:36:11.828Z,98155.31
2018-07-14T13:38:51.260Z,98159.45
2018-07-14T13:41:09.910Z,98152.66
2018-07-14T13:43:39.026Z,98158.36
2018-07-14T13:46:08.115Z,98161.19
2018-07-14T13:48:37.183Z,98160.89
2018-07-14T13:51:06.338Z,98162.38
2018-07-14T13:53:35.411Z,98156.80
2018-07-14T13:56:04.469Z,98148.80
2018-07-14T13:58:33.554Z,98143.52
2018-07-14T14:01:02.591Z,98142.14
2018-07-14T14:03:31.634Z,98140.59
2018-07-14T14:06:00.708Z,98141.33
2018-07-14T14:08:29.745Z,98145.33
2018-07-14T14:10:58.794Z,98138.55
2018-07-14T14:13:28.858Z,98141.72
2018-07-14T14:15:57.942Z,98135.95
2018-07-14T14:18:27.007Z,98136.92
2018-07-14T14:20:56.083Z,98138.77
2018-07-14T14:23:25.134Z,98126.59
2018-07-14T14:25:54.203Z,98122.02
2018-07-14T14:28:23.015Z,98128.02
2018-07-14T14:30:52.061Z,98130.66
2018-07-14T14:33:21.134Z,98127.19
2018-07-14T14:35:50.214Z,98124.88
2018-07-14T14:38:18.864Z,98132.07
2018-07-14T14:40:47.954Z,98128.63
2018-07-14T14:43:17.014Z,98124.44
2018-07-14T14:45:46.063Z,98124.12
2018-07-14T14:48:15.136Z,98125.88
2018-07-14T14:50:44.224Z,98120.59
2018-07-14T14:53:14.323Z,98120.77
2018-07-14T14:55:43.667Z,98117.69
2018-07-14T14:58:12.699Z,98115.84
2018-07-14T15:00:41.751Z,98113.89
2018-07-14T15:03:10.876Z,98110.90
2018-07-14T15:05:39.963Z,98111.48
2018-07-14T15:08:09.006Z,98106.68
2018-07-14T15:10:38.103Z,98095.06
2018-07-14T15:13:07.164Z,98096.05
2018-07-14T15:15:36.256Z,98095.48
2018-07-14T15:18:05.345Z,98093.02
2018-07-14T15:20:34.422Z,98091.04
2018-07-14T15:23:03.490Z,98091.30
2018-07-14T15:25:32.564Z,98091.23
2018-07-14T15:28:01.611Z,98084.61
2018-07-14T15:30:30.870Z,98081.12
2018-07-14T15:33:00.302Z,98080.71
2018-07-14T15:35:29.215Z,98078.47
2018-07-14T15:37:58.270Z,98082.28
2018-07-14T15:40:27.315Z,98080.89
2018-07-14T15:42:56.387Z,98083.09
2018-07-14T15:45:25.434Z,98077.52
2018-07-14T15:47:54.478Z,98084.59
2018-07-14T15:50:23.959Z,98077.33
2018-07-14T15:52:53.320Z,98081.29
2018-07-14T15:55:22.087Z,98079.50
2018-07-14T15:57:51.315Z,98081.08
2018-07-14T16:00:20.519Z,98070.15
2018-07-14T16:02:49.472Z,98074.53
2018-07-14T16:05:18.745Z,98075.12
2018-07-14T16:07:47.430Z,98077.82
2018-07-14T16:10:16.550Z,98077.02
2018-07-14T16:12:45.594Z,98079.72
2018-07-14T16:15:14.689Z,98080.44
2018-07-14T16:17:43.793Z,98079.61
2018-07-14T16:20:12.872Z,98082.23
2018-07-14T16:22:41.982Z,98081.03
2018-07-14T16:25:11.071Z,98082.69
2018-07-14T16:27:40.134Z,98074.68
2018-07-14T16:30:09.394Z,98074.15
2018-07-14T16:32:38.670Z,98074.55
2018-07-14T16:35:07.908Z,98077.24
2018-07-14T16:37:37.146Z,98073.27
2018-07-14T16:40:06.427Z,98075.33
2018-07-14T16:42:35.663Z,98075.45
2018-07-14T16:45:05.494Z,98071.89
2018-07-14T16:47:34.727Z,98072.02
2018-07-14T16:50:04.019Z,98076.07
2018-07-14T16:52:33.173Z,98076.31
2018-07-14T16:55:02.463Z,98076.20
2018-07-14T16:57:31.721Z,98077.34
2018-07-14T17:00:00.895Z,98079.27
2018-07-14T17:02:29.744Z,98069.14
2018-07-14T17:04:59.006Z,98072.36
2018-07-14T17:07:27.603Z,98072.14
2018-07-14T17:09:56.935Z,98068.06
2018-07-14T17:12:26.019Z,98066.67
2018-07-14T17:14:55.095Z,98065.42
2018-07-14T17:17:24.183Z,98069.73
2018-07-14T17:19:53.226Z,98067.34
2018-07-14T17:22:22.292Z,98063.98
2018-07-14T17:24:51.368Z,98067.66
2018-07-14T17:27:20.620Z,98056.02
2018-07-14T17:29:50.054Z,98050.30
2018-07-14T17:32:19.402Z,98052.20
2018-07-14T17:34:48.028Z,98056.70
2018-07-14T17:37:17.088Z,98062.11
2018-07-14T17:39:46.215Z,98054.69
2018-07-14T17:42:15.273Z,98054.09
2018-07-14T17:44:44.162Z,98054.97
2018-07-14T17:47:13.245Z,98051.55
2018-07-14T17:49:42.310Z,98053.92
2018-07-14T17:52:11.422Z,98052.14
2018-07-14T17:54:40.839Z,98051.73
2018-07-14T17:57:09.867Z,98057.39
2018-07-14T17:59:39.547Z,98048.52
2018-07-14T18:02:08.862Z,98049.78
2018-07-14T18:04:37.966Z,98045.00
2018-07-14T18:07:07.272Z,98041.67
2018-07-14T18:09:36.279Z,98039.77
2018-07-14T18:12:05.478Z,98047.56
2018-07-14T18:14:34.560Z,98044.44
2018-07-14T18:17:03.610Z,98041.34
2018-07-14T18:19:32.675Z,98043.34
2018-07-14T18:22:01.726Z,98039.98
2018-07-14T18:24:30.766Z,98041.13
2018-07-14T18:27:00.039Z,98042.77
2018-07-14T18:29:29.402Z,98049.97
2018-07-14T18:31:58.678Z,98039.82
2018-07-14T18:34:28.013Z,98044.73
2018-07-14T18:36:57.299Z,98048.16
2018-07-14T18:39:26.598Z,98048.97
2018-07-14T18:41:55.894Z,98051.48
2018-07-14T18:44:24.727Z,98053.02
2018-07-14T18:46:54.079Z,98052.19
2018-07-14T18:49:23.487Z,98058.33
2018-07-14T18:51:52.702Z,98058.73
2018-07-14T18:54:21.590Z,98066.09
2018-07-14T18:56:50.839Z,98061.73
2018-07-14T18:59:19.906Z,98064.52
2018-07-14T19:01:48.958Z,98062.88
2018-07-14T19:04:18.060Z,98061.66
2018-07-14T19:06:47.354Z,98064.53
2018-07-14T19:09:17.101Z,98068.13
2018-07-14T19:11:46.992Z,98068.31
2018-07-14T19:14:16.683Z,98069.73
2018-07-14T19:16:45.800Z,98066.23
2018-07-14T19:19:14.863Z,98064.30
2018-07-14T19:21:43.958Z,98070.75
2018-07-14T19:24:13.106Z,98068.44
2018-07-14T19:26:42.198Z,98072.95
2018-07-14T19:29:11.294Z,98084.62
2018-07-14T19:31:40.459Z,98084.48
2018-07-14T19:34:09.522Z,98086.98
2018-07-14T19:36:38.781Z,98090.17
2018-07-14T19:39:08.547Z,98092.81
2018-07-14T19:41:38.462Z,98104.52
2018-07-14T19:44:07.686Z,98101.66
2018-07-14T19:46:37.559Z,98108.41
2018-07-14T19:49:08.850Z,98104.80
2018-07-14T19:51:38.427Z,98105.34
2018-07-14T19:54:07.776Z,98112.97
2018-07-14T19:56:37.289Z,98113.34
2018-07-14T19:59:07.895Z,98116.23
2018-07-14T20:01:37.240Z,98112.61
2018-07-14T20:04:07.087Z,98112.61
2018-07-14T20:06:36.712Z,98110.55
2018-07-14T20:09:06.645Z,98117.52
2018-07-14T20:11:35.752Z,98117.28
2018-07-14T20:14:04.815Z,98110.27
2018-07-14T20:16:33.903Z,98118.34
2018-07-14T20:19:02.965Z,98121.99
2018-07-14T20:21:32.023Z,98118.64
2018-07-14T20:24:01.118Z,98116.27
2018-07-14T20:26:30.382Z,98113.67
2018-07-14T20:28:59.480Z,98117.09
2018-07-14T20:31:34.758Z,98119.93
2018-07-14T20:34:04.155Z,98113.66
2018-07-14T20:36:33.235Z,98121.15
2018-07-14T20:39:02.395Z,98116.45
2018-07-14T20:41:32.434Z,98121.62
2018-07-14T20:44:00.986Z,98116.66
2018-07-14T20:46:30.163Z,98112.34
2018-07-14T20:48:59.247Z,98113.91
2018-07-14T20:51:28.670Z,98120.61
2018-07-14T20:53:57.941Z,98122.13
2018-07-14T20:56:27.912Z,98124.17
2018-07-14T20:58:57.026Z,98121.80
2018-07-14T21:01:25.777Z,98122.20
2018-07-14T21:03:54.931Z,98120.41
2018-07-14T21:06:24.036Z,98122.68
2018-07-14T21:08:53.166Z,98123.48
2018-07-14T21:11:25.086Z,98123.77
2018-07-14T21:13:54.961Z,98126.31
2018-07-14T21:18:59.402Z,98125.41
2018-07-14T21:21:28.474Z,98130.48
2018-07-14T21:23:57.542Z,98127.33
2018-07-14T21:26:26.923Z,98121.66
2018-07-14T21:28:56.558Z,98128.08
2018-07-14T21:31:25.963Z,98131.90
2018-07-14T21:33:55.323Z,98137.07
2018-07-14T21:36:24.985Z,98138.02
2018-07-14T21:38:55.048Z,98144.67
2018-07-14T21:41:23.695Z,98141.39
2018-07-14T21:43:53.238Z,98134.83
2018-07-14T21:46:22.962Z,98142.50
2018-07-14T21:48:52.015Z,98145.86
2018-07-14T21:51:21.109Z,98149.08
2018-07-14T21:53:50.206Z,98146.47
2018-07-14T21:56:19.312Z,98138.86
2018-07-14T21:58:48.387Z,98144.77
2018-07-14T22:01:23.834Z,98140.31
2018-07-14T22:03:53.175Z,98140.05
2018-07-14T22:06:22.259Z,98140.83
2018-07-14T22:08:52.219Z,98139.22
2018-07-14T22:11:21.295Z,98141.91
2018-07-14T22:13:50.459Z,98139.88
2018-07-14T22:16:19.524Z,98148.70
2018-07-14T22:18:48.606Z,98151.42
2018-07-14T22:21:18.467Z,98157.91
2018-07-14T22:23:47.566Z,98156.18
2018-07-14T22:26:16.641Z,98156.73
2018-07-14T22:28:45.718Z,98155.77
2018-07-14T22:31:14.894Z,98160.34
2018-07-14T22:33:43.946Z,98167.61
2018-07-14T22:36:13.033Z,98166.06
2018-07-14T22:38:42.102Z,98171.22
2018-07-14T22:41:11.193Z,98167.94
2018-07-14T22:43:40.258Z,98168.30
2018-07-14T22:46:09.378Z,98162.36
2018-07-14T22:48:38.550Z,98166.75
2018-07-14T22:51:07.606Z,98162.22
2018-07-14T22:53:36.724Z,98172.44
2018-07-14T22:56:05.807Z,98169.52
2018-07-14T22:58:34.931Z,98169.31
2018-07-14T23:01:04.339Z,98169.08
2018-07-14T23:03:33.817Z,98176.27
2018-07-14T23:06:02.887Z,98167.73
2018-07-14T23:08:32.021Z,98164.52
2018-07-14T23:11:01.066Z,98170.41
2018-07-14T23:13:30.475Z,98172.86
2018-07-14T23:15:59.539Z,98170.50
2018-07-14T23:18:28.638Z,98165.94
2018-07-14T23:20:57.759Z,98174.88
2018-07-14T23:23:26.819Z,98175.23
2018-07-14T23:25:58.870Z,98172.94
2018-07-14T23:28:27.942Z,98176.60
2018-07-14T23:30:57.436Z,98178.45
2018-07-14T23:33:26.487Z,98176.64
2018-07-14T23:35:55.627Z,98177.58
2018-07-14T23:38:24.729Z,98176.81
2018-07-14T23:40:53.791Z,98169.13
2018-07-14T23:43:22.934Z,98162.49
2018-07-14T23:45:52.274Z,98161.84
2018-07-14T23:48:20.978Z,98159.75
2018-07-14T23:50:50.990Z,98157.53
2018-07-14T23:53:20.062Z,98155.33
2018-07-14T23:55:49.189Z,98162.38
2018-07-14T23:58:18.326Z,98158.37
